createdAt,value
2019-05-22T00:02:24.225Z,89.60
2019-05-22T00:05:00.658Z,89.80
2019-05-22T00:07:28.380Z,89.90
2019-05-22T00:09:56.161Z,89.40
2019-05-22T00:12:24.726Z,89.20
2019-05-22T00:14:55.339Z,88.80
2019-05-22T00:17:28.003Z,90.00
2019-05-22T00:19:56.151Z,89.60
2019-05-22T00:22:33.043Z,89.40
2019-05-22T00:25:01.231Z,89.90
2019-05-22T00:27:31.805Z,90.30
2019-05-22T00:30:01.471Z,90.20
2019-05-22T00:32:29.193Z,90.20
2019-05-22T00:34:56.608Z,90.10
2019-05-22T00:37:25.601Z,90.00
2019-05-22T00:39:53.857Z,89.70
2019-05-22T00:42:23.098Z,89.20
2019-05-22T00:44:51.046Z,89.20
2019-05-22T00:47:19.513Z,89.50
2019-05-22T00:49:48.740Z,89.40
2019-05-22T00:52:45.707Z,89.20
2019-05-22T00:55:26.910Z,89.00
2019-05-22T00:58:03.447Z,88.90
2019-05-22T01:00:41.934Z,88.90
2019-05-22T01:03:13.812Z,89.60
2019-05-22T01:05:42.858Z,89.90
2019-05-22T01:08:13.770Z,89.70
2019-05-22T01:10:44.787Z,89.50
2019-05-22T01:13:14.752Z,89.40
2019-05-22T01:15:43.057Z,89.30
2019-05-22T01:18:13.747Z,88.80
2019-05-22T01:20:43.099Z,88.90
2019-05-22T01:23:15.215Z,88.50
2019-05-22T01:25:42.728Z,89.20
2019-05-22T01:28:10.135Z,89.00
2019-05-22T01:30:44.987Z,88.90
2019-05-22T01:33:15.910Z,88.80
2019-05-22T01:35:52.478Z,89.00
2019-05-22T01:38:20.767Z,89.00
2019-05-22T01:40:54.680Z,89.60
2019-05-22T01:43:25.420Z,89.50
2019-05-22T01:45:52.858Z,89.30
2019-05-22T01:48:25.371Z,89.20
2019-05-22T01:50:54.981Z,88.70
2019-05-22T01:53:28.639Z,88.10
2019-05-22T01:55:58.259Z,88.40
2019-05-22T01:58:27.665Z,88.80
2019-05-22T02:00:57.446Z,88.80
2019-05-22T02:03:27.395Z,88.60
2019-05-22T02:05:54.805Z,88.60
2019-05-22T02:08:23.292Z,88.30
2019-05-22T02:10:51.763Z,88.20
2019-05-22T02:13:27.846Z,88.70
2019-05-22T02:15:55.220Z,88.00
2019-05-22T02:18:24.392Z,89.00
2019-05-22T02:20:52.042Z,89.20
2019-05-22T02:23:21.122Z,88.70
2019-05-22T02:25:49.871Z,88.60
2019-05-22T02:28:17.684Z,88.50
2019-05-22T02:30:47.116Z,88.80
2019-05-22T02:33:18.012Z,88.70
2019-05-22T02:35:45.830Z,88.00
2019-05-22T02:38:13.388Z,87.70
2019-05-22T02:40:43.075Z,87.50
2019-05-22T02:43:11.370Z,87.70
2019-05-22T02:45:39.325Z,88.00
2019-05-22T02:48:09.048Z,87.70
2019-05-22T02:50:37.407Z,87.80
2019-05-22T02:53:08.934Z,87.40
2019-05-22T02:55:37.233Z,87.40
2019-05-22T02:58:05.398Z,88.10
2019-05-22T03:00:45.405Z,87.80
2019-05-22T03:03:13.225Z,87.80
2019-05-22T03:05:40.697Z,87.70
2019-05-22T03:08:08.080Z,87.40
2019-05-22T03:10:36.181Z,87.30
2019-05-22T03:13:06.023Z,87.90
2019-05-22T03:15:33.381Z,87.90
2019-05-22T03:18:04.686Z,87.80
2019-05-22T03:20:33.474Z,88.30
2019-05-22T03:23:38.584Z,88.00
2019-05-22T03:26:10.284Z,88.10
2019-05-22T03:28:39.968Z,87.90
2019-05-22T03:31:08.515Z,88.00
2019-05-22T03:33:36.626Z,88.10
2019-05-22T03:36:09.146Z,88.00
2019-05-22T03:38:39.930Z,87.80
2019-05-22T03:41:08.333Z,87.80
2019-05-22T03:43:36.024Z,87.90
2019-05-22T03:46:19.011Z,87.60
2019-05-22T03:48:46.467Z,87.80
2019-05-22T03:51:16.017Z,87.70
2019-05-22T03:53:44.140Z,87.80
2019-05-22T03:56:12.802Z,88.00
2019-05-22T03:58:40.689Z,87.50
2019-05-22T04:01:08.296Z,87.80
2019-05-22T04:03:35.925Z,87.50
2019-05-22T04:06:05.518Z,87.60
2019-05-22T04:08:34.359Z,87.50
2019-05-22T04:11:04.624Z,87.70
2019-05-22T04:13:32.683Z,87.90
2019-05-22T04:16:03.343Z,88.20
2019-05-22T04:18:32.172Z,88.20
2019-05-22T04:21:01.558Z,87.90
2019-05-22T04:23:29.156Z,88.10
2019-05-22T04:25:57.047Z,88.10
2019-05-22T04:28:25.404Z,87.70
2019-05-22T04:30:59.488Z,88.00
2019-05-22T04:33:26.258Z,88.00
2019-05-22T04:35:53.574Z,88.60
2019-05-22T04:38:22.454Z,87.80
2019-05-22T04:40:59.192Z,87.70
2019-05-22T04:43:30.278Z,87.40
2019-05-22T04:46:00.139Z,87.60
2019-05-22T04:48:30.190Z,87.50
2019-05-22T04:51:04.947Z,87.50
2019-05-22T04:53:32.315Z,87.30
2019-05-22T04:56:00.217Z,87.20
2019-05-22T04:58:31.324Z,87.30
2019-05-22T05:00:58.870Z,87.40
2019-05-22T05:03:28.002Z,86.90
2019-05-22T05:05:56.016Z,87.30
2019-05-22T05:08:24.262Z,87.50
2019-05-22T05:10:52.867Z,86.60
2019-05-22T05:13:20.336Z,86.60
2019-05-22T05:15:47.781Z,87.30
2019-05-22T05:18:15.236Z,87.60
2019-05-22T05:20:42.759Z,87.20
2019-05-22T05:23:10.177Z,86.90
2019-05-22T05:25:38.373Z,86.80
2019-05-22T05:28:07.922Z,87.10
2019-05-22T05:30:35.465Z,87.00
2019-05-22T05:33:03.487Z,86.50
2019-05-22T05:35:31.968Z,86.10
2019-05-22T05:38:00.322Z,87.00
2019-05-22T05:40:39.726Z,86.70
2019-05-22T05:43:09.462Z,86.80
2019-05-22T05:45:39.230Z,86.40
2019-05-22T05:48:08.663Z,86.50
2019-05-22T05:50:39.938Z,86.10
2019-05-22T05:53:11.723Z,86.70
2019-05-22T05:56:14.286Z,86.70
2019-05-22T05:58:42.462Z,86.30
2019-05-22T06:01:21.788Z,86.20
2019-05-22T06:03:49.375Z,86.30
2019-05-22T06:07:08.194Z,85.30
2019-05-22T06:09:36.124Z,85.60
2019-05-22T06:12:05.918Z,86.90
2019-05-22T06:14:34.968Z,86.70
2019-05-22T06:17:56.920Z,86.10
2019-05-22T06:20:26.834Z,85.90
2019-05-22T06:23:49.428Z,85.60
2019-05-22T06:26:27.771Z,85.60
2019-05-22T06:28:56.883Z,84.40
2019-05-22T06:31:37.963Z,84.90
2019-05-22T06:34:06.305Z,83.50
2019-05-22T06:36:36.005Z,83.40
2019-05-22T06:39:11.848Z,83.30
2019-05-22T06:41:40.893Z,82.60
2019-05-22T06:44:41.615Z,82.60
2019-05-22T06:47:15.207Z,82.30
2019-05-22T06:49:47.128Z,81.60
2019-05-22T06:52:15.128Z,82.20
2019-05-22T06:54:43.198Z,82.10
2019-05-22T06:57:15.484Z,83.00
2019-05-22T06:59:44.219Z,82.10
2019-05-22T07:02:13.282Z,80.90
2019-05-22T07:04:41.423Z,81.60
2019-05-22T07:07:11.686Z,81.90
2019-05-22T07:09:39.692Z,80.90
2019-05-22T07:12:08.987Z,81.90
2019-05-22T07:14:42.802Z,80.70
2019-05-22T07:17:13.554Z,82.20
2019-05-22T07:19:42.826Z,83.60
2019-05-22T07:22:10.252Z,80.80
2019-05-22T07:24:38.268Z,80.50
2019-05-22T07:27:23.443Z,81.20
2019-05-22T07:29:51.082Z,81.30
2019-05-22T07:32:18.690Z,79.90
2019-05-22T07:34:46.110Z,79.40
2019-05-22T07:37:13.560Z,80.90
2019-05-22T07:39:40.964Z,80.30
2019-05-22T07:42:08.924Z,79.50
2019-05-22T07:44:36.834Z,79.40
2019-05-22T07:47:05.639Z,80.00
2019-05-22T07:49:33.793Z,79.20
2019-05-22T07:52:02.032Z,80.80
2019-05-22T07:54:29.609Z,80.10
2019-05-22T07:56:58.143Z,80.20
2019-05-22T07:59:25.664Z,80.40
2019-05-22T08:01:53.685Z,80.00
2019-05-22T08:04:22.356Z,80.20
2019-05-22T08:06:49.910Z,80.40
2019-05-22T08:09:19.544Z,80.20
2019-05-22T08:11:47.898Z,80.90
2019-05-22T08:14:17.946Z,80.60
2019-05-22T08:16:46.229Z,81.30
2019-05-22T08:19:13.817Z,81.30
2019-05-22T08:21:41.244Z,80.90
2019-05-22T08:24:08.773Z,81.10
2019-05-22T08:26:53.231Z,80.90
2019-05-22T08:29:07.835Z,81.30
2019-05-22T08:31:36.904Z,81.60
2019-05-22T08:34:04.865Z,80.10
2019-05-22T08:36:33.478Z,79.40
2019-05-22T08:39:03.234Z,80.10
2019-05-22T08:41:35.604Z,79.40
2019-05-22T08:44:16.012Z,78.10
2019-05-22T08:46:35.653Z,79.50
2019-05-22T08:49:03.607Z,80.10
2019-05-22T08:51:31.048Z,78.80
2019-05-22T08:53:59.241Z,76.60
2019-05-22T08:56:29.866Z,75.40
2019-05-22T08:58:57.430Z,73.60
2019-05-22T09:01:25.459Z,74.70
2019-05-22T09:03:54.182Z,72.00
2019-05-22T09:06:21.774Z,72.50
2019-05-22T09:08:49.113Z,70.70
2019-05-22T09:11:16.552Z,70.60
2019-05-22T09:13:44.019Z,73.00
2019-05-22T09:16:12.894Z,72.90
2019-05-22T09:18:40.881Z,73.50
2019-05-22T09:21:08.477Z,74.10
2019-05-22T09:23:36.426Z,73.30
2019-05-22T09:26:04.011Z,74.50
2019-05-22T09:28:31.452Z,73.40
2019-05-22T09:30:58.922Z,72.20
2019-05-22T09:33:27.608Z,73.00
2019-05-22T09:35:55.913Z,71.50
2019-05-22T09:38:23.356Z,73.20
2019-05-22T09:40:51.698Z,72.30
2019-05-22T09:43:19.831Z,71.80
2019-05-22T09:45:47.263Z,72.90
2019-05-22T09:48:15.060Z,72.00
2019-05-22T09:50:42.459Z,73.80
2019-05-22T09:53:11.199Z,73.40
2019-05-22T09:55:38.715Z,73.90
2019-05-22T09:58:07.216Z,70.20
2019-05-22T10:00:35.101Z,71.10
2019-05-22T10:03:03.886Z,67.80
2019-05-22T10:05:31.660Z,67.20
2019-05-22T10:08:01.614Z,65.50
2019-05-22T10:10:29.350Z,67.30
2019-05-22T10:12:56.969Z,69.10
2019-05-22T10:15:25.637Z,64.40
2019-05-22T10:17:53.797Z,67.00
2019-05-22T10:20:22.155Z,65.20
2019-05-22T10:22:49.762Z,68.30
2019-05-22T10:25:17.595Z,67.20
2019-05-22T10:27:46.287Z,67.40
2019-05-22T10:30:17.087Z,65.40
2019-05-22T10:32:44.511Z,66.10
2019-05-22T10:35:12.842Z,65.10
2019-05-22T10:37:41.111Z,67.90
2019-05-22T10:40:10.227Z,66.90
2019-05-22T10:42:37.632Z,65.60
2019-05-22T10:45:05.561Z,63.00
2019-05-22T10:47:34.039Z,62.40
2019-05-22T10:50:01.718Z,65.80
2019-05-22T10:52:29.292Z,64.80
2019-05-22T10:54:56.657Z,66.40
2019-05-22T10:57:24.333Z,65.30
2019-05-22T10:59:51.756Z,64.30
2019-05-22T11:02:19.536Z,62.60
2019-05-22T11:04:47.359Z,64.10
2019-05-22T11:07:15.261Z,64.90
2019-05-22T11:09:42.855Z,63.80
2019-05-22T11:12:10.336Z,61.70
2019-05-22T11:14:37.763Z,62.10
2019-05-22T11:17:06.127Z,65.10
2019-05-22T11:19:33.564Z,62.20
2019-05-22T11:22:01.489Z,63.10
2019-05-22T11:24:29.302Z,63.20
2019-05-22T11:26:56.761Z,60.20
2019-05-22T11:29:24.277Z,59.90
2019-05-22T11:31:52.244Z,59.10
2019-05-22T11:34:19.763Z,57.70
2019-05-22T11:36:47.176Z,58.50
2019-05-22T11:39:16.461Z,58.30
2019-05-22T11:41:44.577Z,53.90
2019-05-22T11:44:12.102Z,49.70
2019-05-22T11:46:39.773Z,49.40
2019-05-22T11:49:07.438Z,49.90
2019-05-22T11:51:34.900Z,50.00
2019-05-22T11:54:09.416Z,48.00
2019-05-22T11:56:31.990Z,46.30
2019-05-22T11:58:59.463Z,49.60
2019-05-22T12:01:27.286Z,47.20
2019-05-22T12:03:55.465Z,44.70
2019-05-22T12:06:24.661Z,43.90
2019-05-22T12:08:53.067Z,39.60
2019-05-22T12:11:20.872Z,38.30
2019-05-22T12:13:48.197Z,36.60
2019-05-22T12:16:16.436Z,37.70
2019-05-22T12:18:44.425Z,41.80
2019-05-22T12:21:12.471Z,45.10
2019-05-22T12:23:40.062Z,46.30
2019-05-22T12:26:08.866Z,50.70
2019-05-22T12:28:36.889Z,52.60
2019-05-22T12:31:04.393Z,54.80
2019-05-22T12:33:31.848Z,57.50
2019-05-22T12:35:59.653Z,57.70
2019-05-22T12:38:29.376Z,59.10
2019-05-22T12:40:57.375Z,58.30
2019-05-22T12:43:27.855Z,59.10
2019-05-22T12:45:55.400Z,60.30
2019-05-22T12:48:23.149Z,55.60
2019-05-22T12:50:51.413Z,55.20
2019-05-22T12:53:20.898Z,54.00
2019-05-22T12:55:49.005Z,54.90
2019-05-22T12:58:17.131Z,56.20
2019-05-22T13:00:45.316Z,58.20
2019-05-22T13:03:14.511Z,59.00
2019-05-22T13:05:42.033Z,60.30
2019-05-22T13:08:12.429Z,61.00
2019-05-22T13:10:40.328Z,61.80
2019-05-22T13:13:08.436Z,60.00
2019-05-22T13:15:38.279Z,55.70
2019-05-22T13:18:07.648Z,49.90
2019-05-22T13:20:42.581Z,47.50
2019-05-22T13:23:08.842Z,47.60
2019-05-22T13:25:38.937Z,49.30
2019-05-22T13:28:08.218Z,50.60
2019-05-22T13:30:38.484Z,52.20
2019-05-22T13:33:08.055Z,53.70
2019-05-22T13:35:35.767Z,56.10
2019-05-22T13:38:04.768Z,50.70
2019-05-22T13:40:32.655Z,50.60
2019-05-22T13:43:01.045Z,51.90
2019-05-22T13:45:30.239Z,51.20
2019-05-22T13:47:58.021Z,53.80
2019-05-22T13:50:28.893Z,54.70
2019-05-22T13:52:58.168Z,56.30
2019-05-22T13:55:26.401Z,57.40
2019-05-22T13:57:54.460Z,56.70
2019-05-22T14:00:24.416Z,54.80
2019-05-22T14:02:52.537Z,54.20
2019-05-22T14:05:20.544Z,51.80
2019-05-22T14:07:48.392Z,51.40
2019-05-22T14:10:17.653Z,48.70
2019-05-22T14:12:48.141Z,45.50
2019-05-22T14:15:16.629Z,43.50
2019-05-22T14:17:43.972Z,44.70
2019-05-22T14:20:12.051Z,43.10
2019-05-22T14:22:39.519Z,42.40
2019-05-22T14:25:08.043Z,41.80
2019-05-22T14:27:35.476Z,43.30
2019-05-22T14:30:04.336Z,41.00
2019-05-22T14:32:32.403Z,43.20
2019-05-22T14:35:00.433Z,42.00
2019-05-22T14:37:28.341Z,42.50
2019-05-22T14:39:56.402Z,40.00
2019-05-22T14:42:24.948Z,38.10
2019-05-22T14:44:53.004Z,37.90
2019-05-22T14:47:20.845Z,37.00
2019-05-22T14:49:48.606Z,37.40
2019-05-22T14:52:16.823Z,35.50
2019-05-22T14:54:44.391Z,38.20
2019-05-22T14:57:12.042Z,37.90
2019-05-22T14:59:39.712Z,34.60
2019-05-22T15:02:11.220Z,33.90
2019-05-22T15:04:39.259Z,33.00
2019-05-22T15:07:07.286Z,30.20
2019-05-22T15:09:34.720Z,31.50
2019-05-22T15:12:02.231Z,31.70
2019-05-22T15:14:30.243Z,32.40
2019-05-22T15:16:58.140Z,32.10
2019-05-22T15:19:26.137Z,32.00
2019-05-22T15:21:53.679Z,30.30
2019-05-22T15:24:21.602Z,29.70
2019-05-22T15:26:49.110Z,28.80
2019-05-22T15:29:17.526Z,29.20
2019-05-22T15:31:45.323Z,29.80
2019-05-22T15:34:16.122Z,31.00
2019-05-22T15:36:44.232Z,32.10
2019-05-22T15:39:16.957Z,34.80
2019-05-22T15:41:44.700Z,37.90
2019-05-22T15:44:12.868Z,39.50
2019-05-22T15:46:42.757Z,42.30
2019-05-22T15:49:10.239Z,43.50
2019-05-22T15:51:39.702Z,45.00
2019-05-22T15:54:09.662Z,45.70
2019-05-22T15:56:41.631Z,46.30
2019-05-22T15:59:12.305Z,47.70
2019-05-22T16:01:42.025Z,48.20
2019-05-22T16:04:11.112Z,48.10
2019-05-22T16:06:39.731Z,49.80
2019-05-22T16:09:12.571Z,50.30
2019-05-22T16:11:41.015Z,54.20
2019-05-22T16:14:10.034Z,53.70
2019-05-22T16:16:39.173Z,52.50
2019-05-22T16:19:09.851Z,54.20
2019-05-22T16:21:41.457Z,54.60
2019-05-22T16:24:13.187Z,55.00
2019-05-22T16:26:41.342Z,54.10
2019-05-22T16:29:09.045Z,55.10
2019-05-22T16:31:39.222Z,56.40
2019-05-22T16:34:07.210Z,54.30
2019-05-22T16:36:35.162Z,54.80
2019-05-22T16:39:06.026Z,54.00
2019-05-22T16:41:34.676Z,54.80
2019-05-22T16:44:03.360Z,56.10
2019-05-22T16:46:31.877Z,56.60
2019-05-22T16:48:59.635Z,55.60
2019-05-22T16:51:28.285Z,55.90
2019-05-22T16:54:02.307Z,55.70
2019-05-22T16:56:30.626Z,56.40
2019-05-22T16:58:58.441Z,56.10
2019-05-22T17:01:26.469Z,57.30
2019-05-22T17:03:57.875Z,55.10
2019-05-22T17:06:27.444Z,57.00
2019-05-22T17:08:56.599Z,56.30
2019-05-22T17:11:24.611Z,56.00
2019-05-22T17:13:55.062Z,56.60
2019-05-22T17:16:23.741Z,55.90
2019-05-22T17:18:51.288Z,55.00
2019-05-22T17:21:18.727Z,56.70
2019-05-22T17:23:47.266Z,57.10
2019-05-22T17:26:15.577Z,57.40
2019-05-22T17:28:44.599Z,57.50
2019-05-22T17:31:12.085Z,57.30
2019-05-22T17:33:40.158Z,56.80
2019-05-22T17:36:08.631Z,58.00
2019-05-22T17:38:37.495Z,57.60
2019-05-22T17:41:06.827Z,60.00
2019-05-22T17:43:35.422Z,60.10
2019-05-22T17:46:05.183Z,58.50
2019-05-22T17:48:33.165Z,57.70
2019-05-22T17:51:01.671Z,60.20
2019-05-22T17:53:29.829Z,60.00
2019-05-22T17:55:57.398Z,59.60
2019-05-22T17:58:29.761Z,59.70
2019-05-22T18:00:55.620Z,57.90
2019-05-22T18:03:24.073Z,56.30
2019-05-22T18:05:52.594Z,58.80
2019-05-22T18:08:21.659Z,59.60
2019-05-22T18:10:50.219Z,60.40
2019-05-22T18:13:18.811Z,58.70
2019-05-22T18:15:47.130Z,60.00
2019-05-22T18:18:15.845Z,60.90
2019-05-22T18:20:44.337Z,59.70
2019-05-22T18:23:12.687Z,59.70
2019-05-22T18:25:40.973Z,60.80
2019-05-22T18:28:10.309Z,60.90
2019-05-22T18:30:41.204Z,61.70
2019-05-22T18:33:10.162Z,60.80
2019-05-22T18:35:38.417Z,60.30
2019-05-22T18:38:06.063Z,59.90
2019-05-22T18:40:33.921Z,61.80
2019-05-22T18:43:01.735Z,62.30
2019-05-22T18:45:31.142Z,60.80
2019-05-22T18:47:59.098Z,62.20
2019-05-22T18:50:26.839Z,61.60
2019-05-22T18:52:54.515Z,62.40
2019-05-22T18:55:22.522Z,61.90
2019-05-22T18:57:50.642Z,62.90
2019-05-22T19:00:23.091Z,62.50
2019-05-22T19:02:51.124Z,62.70
2019-05-22T19:05:23.521Z,63.20
2019-05-22T19:07:51.544Z,63.40
2019-05-22T19:10:20.538Z,63.50
2019-05-22T19:12:48.199Z,63.90
2019-05-22T19:15:17.441Z,63.30
2019-05-22T19:17:45.377Z,63.70
2019-05-22T19:20:13.547Z,64.40
2019-05-22T19:22:56.764Z,63.60
2019-05-22T19:25:11.387Z,65.10
2019-05-22T19:27:39.437Z,65.80
2019-05-22T19:30:08.215Z,66.10
2019-05-22T19:32:36.154Z,66.80
2019-05-22T19:35:04.726Z,67.10
2019-05-22T19:37:33.143Z,67.50
2019-05-22T19:40:00.876Z,68.00
2019-05-22T19:42:28.767Z,68.20
2019-05-22T19:44:56.385Z,68.60
2019-05-22T19:47:24.362Z,68.50
2019-05-22T19:49:52.161Z,68.80
2019-05-22T19:52:22.798Z,69.40
2019-05-22T19:54:51.094Z,69.30
2019-05-22T19:57:18.886Z,69.80
2019-05-22T19:59:47.931Z,69.90
2019-05-22T20:02:17.370Z,70.20
2019-05-22T20:04:48.495Z,70.20
2019-05-22T20:07:17.687Z,70.60
2019-05-22T20:09:45.777Z,70.90
2019-05-22T20:12:14.318Z,71.00
2019-05-22T20:14:42.076Z,71.30
2019-05-22T20:17:10.217Z,71.50
2019-05-22T20:19:37.696Z,71.90
2019-05-22T20:22:05.954Z,72.10
2019-05-22T20:24:33.522Z,72.40
2019-05-22T20:27:01.162Z,73.00
2019-05-22T20:29:29.043Z,73.30
2019-05-22T20:31:56.747Z,73.80
2019-05-22T20:34:24.226Z,74.00
2019-05-22T20:36:52.282Z,74.00
2019-05-22T20:39:21.582Z,74.10
2019-05-22T20:41:49.902Z,74.40
2019-05-22T20:44:18.566Z,74.70
2019-05-22T20:46:45.972Z,75.10
2019-05-22T20:49:15.040Z,75.30
2019-05-22T20:51:43.333Z,75.50
2019-05-22T20:54:12.576Z,75.50
2019-05-22T20:56:43.569Z,75.70
2019-05-22T20:59:11.027Z,75.80
2019-05-22T21:01:38.427Z,76.20
2019-05-22T21:04:10.080Z,76.20
2019-05-22T21:06:43.731Z,76.50
2019-05-22T21:09:12.974Z,76.40
2019-05-22T21:11:42.498Z,76.20
2019-05-22T21:14:10.368Z,76.40
2019-05-22T21:16:39.409Z,76.80
2019-05-22T21:19:07.459Z,77.10
2019-05-22T21:21:35.281Z,76.80
2019-05-22T21:24:11.164Z,77.10
2019-05-22T21:26:32.562Z,76.90
2019-05-22T21:29:01.059Z,77.00
2019-05-22T21:31:29.236Z,77.20
2019-05-22T21:33:56.608Z,77.10
2019-05-22T21:36:26.359Z,77.30
2019-05-22T21:38:54.424Z,77.20
2019-05-22T21:41:22.553Z,77.40
2019-05-22T21:43:51.229Z,77.20
2019-05-22T21:46:19.339Z,77.00
2019-05-22T21:48:48.547Z,76.70
2019-05-22T21:51:16.909Z,76.80
2019-05-22T21:53:44.641Z,76.80
2019-05-22T21:56:12.086Z,76.70
2019-05-22T21:58:40.336Z,76.90
2019-05-22T22:01:17.783Z,76.60
2019-05-22T22:03:47.206Z,76.30
2019-05-22T22:06:15.947Z,76.80
2019-05-22T22:08:44.106Z,76.80
2019-05-22T22:11:11.982Z,77.30
2019-05-22T22:13:40.861Z,77.50
2019-05-22T22:16:08.337Z,77.70
2019-05-22T22:18:37.903Z,77.10
2019-05-22T22:21:06.021Z,77.10
2019-05-22T22:23:35.463Z,77.30
2019-05-22T22:26:03.612Z,77.20
2019-05-22T22:28:31.543Z,77.20
2019-05-22T22:31:03.824Z,77.40
2019-05-22T22:33:33.618Z,77.30
2019-05-22T22:36:01.662Z,77.10
2019-05-22T22:38:30.391Z,77.30
2019-05-22T22:40:59.296Z,77.30
2019-05-22T22:43:31.826Z,77.60
2019-05-22T22:46:11.903Z,77.70
2019-05-22T22:48:40.037Z,77.50
2019-05-22T22:51:11.498Z,77.70
2019-05-22T22:53:39.759Z,77.80
2019-05-22T22:56:07.729Z,77.70
2019-05-22T22:58:35.285Z,78.20
2019-05-22T23:01:07.008Z,78.30
2019-05-22T23:03:36.214Z,78.30
2019-05-22T23:06:05.671Z,78.00
2019-05-22T23:08:34.315Z,77.90
2019-05-22T23:11:04.809Z,78.40
2019-05-22T23:13:32.454Z,78.60
2019-05-22T23:16:01.557Z,78.40
2019-05-22T23:19:01.794Z,78.40
2019-05-22T23:21:29.813Z,78.30
2019-05-22T23:23:56.141Z,78.40
2019-05-22T23:26:24.566Z,78.30
2019-05-22T23:28:52.434Z,78.30
2019-05-22T23:31:20.638Z,78.40
2019-05-22T23:33:47.988Z,78.50
2019-05-22T23:36:15.751Z,78.40
2019-05-22T23:38:44.679Z,78.70
2019-05-22T23:41:13.378Z,78.50
2019-05-22T23:43:43.467Z,78.00
2019-05-22T23:46:12.802Z,77.70
2019-05-22T23:48:40.590Z,77.80
2019-05-22T23:51:08.132Z,78.20
2019-05-22T23:53:37.116Z,78.70
2019-05-22T23:56:06.167Z,78.60
2019-05-22T23:58:34.259Z,78.20
